sensor_id;sensor_type;location;lat;lon;timestamp;pressure;altitude;pressure_sealevel;temperature;humidity
23619;BME280;18207;32.078;34.818;2023-03-03T00:02:18;100467.94;;;29.87;21.11
23619;BME280;18207;32.078;34.818;2023-03-03T00:04:50;100474.00;;;29.86;21.12
23619;BME280;18207;32.078;34.818;2023-03-03T00:07:20;100481.28;;;29.83;21.34
23619;BME280;18207;32.078;34.818;2023-03-03T00:09:51;100481.28;;;29.83;21.62
23619;BME280;18207;32.078;34.818;2023-03-03T00:12:25;100483.69;;;29.81;21.39
23619;BME280;18207;32.078;34.818;2023-03-03T00:14:56;100499.13;;;29.80;21.56
23619;BME280;18207;32.078;34.818;2023-03-03T00:17:29;100499.50;;;29.79;21.60
23619;BME280;18207;32.078;34.818;2023-03-03T00:20:24;100510.41;;;29.77;21.58
23619;BME280;18207;32.078;34.818;2023-03-03T00:23:18;100506.38;;;29.74;21.82
23619;BME280;18207;32.078;34.818;2023-03-03T00:25:52;100514.88;;;29.74;21.80
23619;BME280;18207;32.078;34.818;2023-03-03T00:28:26;100522.97;;;29.72;21.91
23619;BME280;18207;32.078;34.818;2023-03-03T00:30:59;100523.78;;;29.69;22.04
23619;BME280;18207;32.078;34.818;2023-03-03T00:33:35;100533.50;;;29.65;22.01
23619;BME280;18207;32.078;34.818;2023-03-03T00:36:30;100532.25;;;29.62;22.21
23619;BME280;18207;32.078;34.818;2023-03-03T00:39:25;100537.94;;;29.59;22.42
23619;BME280;18207;32.078;34.818;2023-03-03T00:41:56;100545.22;;;29.56;22.49
23619;BME280;18207;32.078;34.818;2023-03-03T00:44:41;100551.28;;;29.55;22.72
23619;BME280;18207;32.078;34.818;2023-03-03T00:47:29;100561.78;;;29.51;22.80
23619;BME280;18207;32.078;34.818;2023-03-03T00:50:29;100571.06;;;29.45;23.06
23619;BME280;18207;32.078;34.818;2023-03-03T00:53:18;100571.06;;;29.41;22.96
23619;BME280;18207;32.078;34.818;2023-03-03T00:55:51;100579.56;;;29.38;23.17
23619;BME280;18207;32.078;34.818;2023-03-03T00:58:23;100587.59;;;29.36;23.17
23619;BME280;18207;32.078;34.818;2023-03-03T01:00:55;100587.59;;;29.32;23.22
23619;BME280;18207;32.078;34.818;2023-03-03T01:03:26;100591.22;;;29.29;23.43
23619;BME280;18207;32.078;34.818;2023-03-03T01:05:56;100596.84;;;29.26;23.95
23619;BME280;18207;32.078;34.818;2023-03-03T01:08:28;100599.28;;;29.24;23.72
23619;BME280;18207;32.078;34.818;2023-03-03T01:11:03;100603.72;;;29.21;23.77
23619;BME280;18207;32.078;34.818;2023-03-03T01:13:37;100615.81;;;29.18;24.10
23619;BME280;18207;32.078;34.818;2023-03-03T01:16:09;100617.03;;;29.14;24.02
23619;BME280;18207;32.078;34.818;2023-03-03T01:18:40;100615.81;;;29.11;24.09
23619;BME280;18207;32.078;34.818;2023-03-03T01:21:12;100617.41;;;29.09;24.41
23619;BME280;18207;32.078;34.818;2023-03-03T01:23:44;100619.81;;;29.03;24.41
23619;BME280;18207;32.078;34.818;2023-03-03T01:26:14;100626.22;;;28.97;24.57
23619;BME280;18207;32.078;34.818;2023-03-03T01:28:44;100620.97;;;28.92;24.60
23619;BME280;18207;32.078;34.818;2023-03-03T01:31:15;100640.72;;;28.88;24.73
23619;BME280;18207;32.078;34.818;2023-03-03T01:33:45;100638.69;;;28.85;24.96
23619;BME280;18207;32.078;34.818;2023-03-03T01:36:23;100640.31;;;28.83;24.83
23619;BME280;18207;32.078;34.818;2023-03-03T01:38:55;100647.91;;;28.79;25.22
23619;BME280;18207;32.078;34.818;2023-03-03T01:41:27;100651.53;;;28.76;24.99
23619;BME280;18207;32.078;34.818;2023-03-03T01:43:59;100665.66;;;28.72;25.15
23619;BME280;18207;32.078;34.818;2023-03-03T01:46:54;100670.44;;;28.65;25.21
23619;BME280;18207;32.078;34.818;2023-03-03T01:49:32;100668.78;;;28.61;25.59
23619;BME280;18207;32.078;34.818;2023-03-03T01:52:11;100668.38;;;28.59;25.59
23619;BME280;18207;32.078;34.818;2023-03-03T01:54:50;100678.84;;;28.55;25.64
23619;BME280;18207;32.078;34.818;2023-03-03T01:57:28;100673.97;;;28.52;25.64
23619;BME280;18207;32.078;34.818;2023-03-03T02:00:04;100675.56;;;28.49;25.95
23619;BME280;18207;32.078;34.818;2023-03-03T02:02:36;100669.88;;;28.46;26.05
23619;BME280;18207;32.078;34.818;2023-03-03T02:05:08;100675.91;;;28.44;25.99
23619;BME280;18207;32.078;34.818;2023-03-03T02:07:39;100685.63;;;28.43;25.88
23619;BME280;18207;32.078;34.818;2023-03-03T02:10:17;100686.81;;;28.42;26.26
23619;BME280;18207;32.078;34.818;2023-03-03T02:12:51;100703.34;;;28.40;26.16
23619;BME280;18207;32.078;34.818;2023-03-03T02:15:25;100699.66;;;28.36;26.31
23619;BME280;18207;32.078;34.818;2023-03-03T02:17:58;100704.09;;;28.34;26.43
23619;BME280;18207;32.078;34.818;2023-03-03T02:20:53;100711.34;;;28.31;26.52
23619;BME280;18207;32.078;34.818;2023-03-03T02:23:32;100710.13;;;28.29;26.74
23619;BME280;18207;32.078;34.818;2023-03-03T02:26:09;100710.50;;;28.27;26.68
23619;BME280;18207;32.078;34.818;2023-03-03T02:28:42;100721.38;;;28.25;26.76
23619;BME280;18207;32.078;34.818;2023-03-03T02:31:16;100718.13;;;28.23;26.82
23619;BME280;18207;32.078;34.818;2023-03-03T02:33:49;100721.69;;;28.20;26.90
23619;BME280;18207;32.078;34.818;2023-03-03T02:36:22;100722.47;;;28.17;27.09
23619;BME280;18207;32.078;34.818;2023-03-03T02:39:02;100727.69;;;28.15;27.00
23619;BME280;18207;32.078;34.818;2023-03-03T02:41:41;100738.97;;;28.12;27.15
23619;BME280;18207;32.078;34.818;2023-03-03T02:44:15;100736.09;;;28.08;27.34
23619;BME280;18207;32.078;34.818;2023-03-03T02:46:48;100742.91;;;28.04;27.43
23619;BME280;18207;32.078;34.818;2023-03-03T02:49:22;100741.28;;;28.03;27.27
23619;BME280;18207;32.078;34.818;2023-03-03T02:51:53;100757.81;;;28.01;27.39
23619;BME280;18207;32.078;34.818;2023-03-03T02:54:27;100759.81;;;28.00;27.67
23619;BME280;18207;32.078;34.818;2023-03-03T02:57:00;100757.75;;;27.97;27.47
23619;BME280;18207;32.078;34.818;2023-03-03T02:59:30;100762.63;;;27.97;27.70
23619;BME280;18207;32.078;34.818;2023-03-03T03:02:00;100758.16;;;27.96;27.94
23619;BME280;18207;32.078;34.818;2023-03-03T03:04:35;100767.84;;;27.95;27.79
23619;BME280;18207;32.078;34.818;2023-03-03T03:07:07;100770.63;;;27.91;27.83
23619;BME280;18207;32.078;34.818;2023-03-03T03:09:37;100777.84;;;27.89;27.99
23619;BME280;18207;32.078;34.818;2023-03-03T03:12:09;100769.75;;;27.87;27.91
23619;BME280;18207;32.078;34.818;2023-03-03T03:14:39;100783.03;;;27.83;27.94
23619;BME280;18207;32.078;34.818;2023-03-03T03:17:09;100788.25;;;27.81;27.76
23619;BME280;18207;32.078;34.818;2023-03-03T03:19:40;100791.81;;;27.78;27.99
23619;BME280;18207;32.078;34.818;2023-03-03T03:22:11;100786.13;;;27.75;28.06
23619;BME280;18207;32.078;34.818;2023-03-03T03:24:41;100795.75;;;27.71;28.10
23619;BME280;18207;32.078;34.818;2023-03-03T03:27:14;100793.31;;;27.69;28.10
23619;BME280;18207;32.078;34.818;2023-03-03T03:29:44;100816.69;;;27.66;28.19
23619;BME280;18207;32.078;34.818;2023-03-03T03:32:14;100811.31;;;27.61;28.33
23619;BME280;18207;32.078;34.818;2023-03-03T03:34:45;100818.53;;;27.59;28.51
23619;BME280;18207;32.078;34.818;2023-03-03T03:37:15;100823.72;;;27.53;28.71
23619;BME280;18207;32.078;34.818;2023-03-03T03:39:45;100822.03;;;27.49;28.75
23619;BME280;18207;32.078;34.818;2023-03-03T03:42:17;100836.09;;;27.45;29.19
23619;BME280;18207;32.078;34.818;2023-03-03T03:44:47;100827.19;;;27.43;29.02
23619;BME280;18207;32.078;34.818;2023-03-03T03:47:18;100832.38;;;27.41;29.37
23619;BME280;18207;32.078;34.818;2023-03-03T03:49:49;100831.97;;;27.39;29.68
23619;BME280;18207;32.078;34.818;2023-03-03T03:52:19;100835.59;;;27.40;29.59
23619;BME280;18207;32.078;34.818;2023-03-03T03:54:49;100846.09;;;27.39;29.69
23619;BME280;18207;32.078;34.818;2023-03-03T03:57:22;100835.16;;;27.38;30.13
23619;BME280;18207;32.078;34.818;2023-03-03T03:59:53;100838.38;;;27.36;30.17
23619;BME280;18207;32.078;34.818;2023-03-03T04:02:23;100837.94;;;27.34;30.13
23619;BME280;18207;32.078;34.818;2023-03-03T04:04:54;100848.78;;;27.32;30.23
23619;BME280;18207;32.078;34.818;2023-03-03T04:07:25;100845.09;;;27.28;30.46
23619;BME280;18207;32.078;34.818;2023-03-03T04:09:56;100859.16;;;27.25;30.48
23619;BME280;18207;32.078;34.818;2023-03-03T04:12:27;100866.34;;;27.22;30.74
23619;BME280;18207;32.078;34.818;2023-03-03T04:15:04;100869.13;;;27.19;30.70
23619;BME280;18207;32.078;34.818;2023-03-03T04:17:35;100877.97;;;27.17;30.72
23619;BME280;18207;32.078;34.818;2023-03-03T04:20:07;100880.78;;;27.17;30.86
23619;BME280;18207;32.078;34.818;2023-03-03T04:22:38;100889.66;;;27.16;30.97
23619;BME280;18207;32.078;34.818;2023-03-03T04:25:11;100901.28;;;27.14;31.04
23619;BME280;18207;32.078;34.818;2023-03-03T04:27:45;100905.31;;;27.13;31.43
23619;BME280;18207;32.078;34.818;2023-03-03T04:30:16;100907.28;;;27.09;31.25
23619;BME280;18207;32.078;34.818;2023-03-03T04:32:47;100910.03;;;27.06;31.36
23619;BME280;18207;32.078;34.818;2023-03-03T04:35:17;100925.31;;;27.05;31.39
23619;BME280;18207;32.078;34.818;2023-03-03T04:37:48;100924.50;;;27.04;31.69
23619;BME280;18207;32.078;34.818;2023-03-03T04:40:19;100935.78;;;27.04;31.58
23619;BME280;18207;32.078;34.818;2023-03-03T04:42:51;100929.34;;;27.04;31.77
23619;BME280;18207;32.078;34.818;2023-03-03T04:45:21;100928.94;;;27.05;31.77
23619;BME280;18207;32.078;34.818;2023-03-03T04:47:52;100932.59;;;27.06;31.94
23619;BME280;18207;32.078;34.818;2023-03-03T04:50:21;100939.78;;;27.03;32.09
23619;BME280;18207;32.078;34.818;2023-03-03T04:52:51;100941.81;;;27.03;32.17
23619;BME280;18207;32.078;34.818;2023-03-03T04:55:23;100943.00;;;27.02;32.34
23619;BME280;18207;32.078;34.818;2023-03-03T04:57:55;100949.00;;;27.00;32.33
23619;BME280;18207;32.078;34.818;2023-03-03T05:00:25;100949.34;;;26.99;32.52
23619;BME280;18207;32.078;34.818;2023-03-03T05:02:56;100952.16;;;26.99;32.51
23619;BME280;18207;32.078;34.818;2023-03-03T05:05:26;100962.66;;;26.98;32.52
23619;BME280;18207;32.078;34.818;2023-03-03T05:07:57;100963.84;;;26.97;32.47
23619;BME280;18207;32.078;34.818;2023-03-03T05:10:27;100975.13;;;26.97;32.63
23619;BME280;18207;32.078;34.818;2023-03-03T05:13:01;100974.31;;;26.97;32.74
23619;BME280;18207;32.078;34.818;2023-03-03T05:15:32;100981.16;;;26.96;32.68
23619;BME280;18207;32.078;34.818;2023-03-03T05:18:02;100984.31;;;26.94;33.06
23619;BME280;18207;32.078;34.818;2023-03-03T05:20:32;100985.50;;;26.93;32.80
23619;BME280;18207;32.078;34.818;2023-03-03T05:23:02;100998.81;;;26.93;33.11
23619;BME280;18207;32.078;34.818;2023-03-03T05:25:34;100992.72;;;26.91;33.20
23619;BME280;18207;32.078;34.818;2023-03-03T05:28:07;101001.19;;;26.91;33.10
23619;BME280;18207;32.078;34.818;2023-03-03T05:30:37;101003.19;;;26.90;33.07
23619;BME280;18207;32.078;34.818;2023-03-03T05:33:09;101014.47;;;26.90;33.42
23619;BME280;18207;32.078;34.818;2023-03-03T05:35:41;101016.13;;;26.91;33.50
23619;BME280;18207;32.078;34.818;2023-03-03T05:38:11;101015.28;;;26.91;33.65
23619;BME280;18207;32.078;34.818;2023-03-03T05:40:41;101016.91;;;26.92;33.56
23619;BME280;18207;32.078;34.818;2023-03-03T05:43:13;101021.38;;;26.93;34.06
23619;BME280;18207;32.078;34.818;2023-03-03T05:45:44;101029.47;;;26.94;33.81
23619;BME280;18207;32.078;34.818;2023-03-03T05:48:14;101033.91;;;26.95;33.94
23619;BME280;18207;32.078;34.818;2023-03-03T05:50:44;101036.72;;;26.95;33.79
23619;BME280;18207;32.078;34.818;2023-03-03T05:53:15;101036.38;;;26.97;33.98
23619;BME280;18207;32.078;34.818;2023-03-03T05:55:45;101039.19;;;26.97;33.93
23619;BME280;18207;32.078;34.818;2023-03-03T05:58:17;101040.38;;;26.96;34.24
23619;BME280;18207;32.078;34.818;2023-03-03T06:00:48;101037.19;;;26.97;34.46
23619;BME280;18207;32.078;34.818;2023-03-03T06:03:18;101038.38;;;26.96;33.97
23619;BME280;18207;32.078;34.818;2023-03-03T06:05:49;101043.63;;;26.98;34.34
23619;BME280;18207;32.078;34.818;2023-03-03T06:08:19;101036.00;;;26.98;34.27
23619;BME280;18207;32.078;34.818;2023-03-03T06:10:50;101038.00;;;26.98;33.97
23619;BME280;18207;32.078;34.818;2023-03-03T06:13:22;101032.34;;;26.98;34.30
23619;BME280;18207;32.078;34.818;2023-03-03T06:15:52;101035.63;;;27.00;34.43
23619;BME280;18207;32.078;34.818;2023-03-03T06:18:23;101040.06;;;27.01;34.59
23619;BME280;18207;32.078;34.818;2023-03-03T06:20:54;101026.06;;;27.04;34.46
23619;BME280;18207;32.078;34.818;2023-03-03T06:23:25;101034.19;;;27.06;34.64
23619;BME280;18207;32.078;34.818;2023-03-03T06:25:56;101030.59;;;27.09;34.70
23619;BME280;18207;32.078;34.818;2023-03-03T06:28:28;101033.94;;;27.14;34.88
23619;BME280;18207;32.078;34.818;2023-03-03T06:30:59;101036.06;;;27.21;35.17
23619;BME280;18207;32.078;34.818;2023-03-03T06:33:29;101040.66;;;27.29;35.12
23619;BME280;18207;32.078;34.818;2023-03-03T06:35:59;101045.63;;;27.35;35.16
23619;BME280;18207;32.078;34.818;2023-03-03T06:38:32;101044.50;;;27.40;35.24
23619;BME280;18207;32.078;34.818;2023-03-03T06:41:02;101047.09;;;27.48;35.16
23619;BME280;18207;32.078;34.818;2023-03-03T06:43:36;101054.88;;;27.55;35.22
23619;BME280;18207;32.078;34.818;2023-03-03T06:46:06;101047.34;;;27.62;35.33
23619;BME280;18207;32.078;34.818;2023-03-03T06:48:37;101053.53;;;27.68;35.19
23619;BME280;18207;32.078;34.818;2023-03-03T06:51:22;101051.22;;;27.73;35.28
23619;BME280;18207;32.078;34.818;2023-03-03T06:53:56;101057.34;;;27.78;35.34
23619;BME280;18207;32.078;34.818;2023-03-03T06:56:27;101050.22;;;27.84;35.61
23619;BME280;18207;32.078;34.818;2023-03-03T06:59:05;101055.53;;;27.89;35.46
23619;BME280;18207;32.078;34.818;2023-03-03T07:01:40;101062.13;;;27.97;35.48
23619;BME280;18207;32.078;34.818;2023-03-03T07:04:20;101055.78;;;28.03;35.31
23619;BME280;18207;32.078;34.818;2023-03-03T07:06:52;101053.50;;;28.12;35.64
23619;BME280;18207;32.078;34.818;2023-03-03T07:09:26;101043.59;;;28.22;35.66
23619;BME280;18207;32.078;34.818;2023-03-03T07:12:04;101056.25;;;28.31;35.63
23619;BME280;18207;32.078;34.818;2023-03-03T07:14:42;101055.63;;;28.41;35.87
23619;BME280;18207;32.078;34.818;2023-03-03T07:17:16;101050.09;;;28.52;35.72
23619;BME280;18207;32.078;34.818;2023-03-03T07:19:47;101048.63;;;28.61;35.70
23619;BME280;18207;32.078;34.818;2023-03-03T07:22:20;101054.41;;;28.71;35.95
23619;BME280;18207;32.078;34.818;2023-03-03T07:24:56;101057.00;;;28.80;35.85
23619;BME280;18207;32.078;34.818;2023-03-03T07:27:30;101052.25;;;28.87;35.56
23619;BME280;18207;32.078;34.818;2023-03-03T07:30:23;101065.31;;;28.95;35.50
23619;BME280;18207;32.078;34.818;2023-03-03T07:32:55;101055.66;;;29.00;35.62
23619;BME280;18207;32.078;34.818;2023-03-03T07:35:43;101059.78;;;29.09;35.58
23619;BME280;18207;32.078;34.818;2023-03-03T07:38:28;101057.88;;;29.17;35.36
23619;BME280;18207;32.078;34.818;2023-03-03T07:41:01;101055.13;;;29.24;35.39
23619;BME280;18207;32.078;34.818;2023-03-03T07:43:37;101057.25;;;29.34;35.52
23619;BME280;18207;32.078;34.818;2023-03-03T07:46:28;101056.19;;;29.42;35.45
23619;BME280;18207;32.078;34.818;2023-03-03T07:48:59;101052.22;;;29.50;35.05
23619;BME280;18207;32.078;34.818;2023-03-03T07:51:38;101055.53;;;29.58;35.17
23619;BME280;18207;32.078;34.818;2023-03-03T07:54:26;101052.81;;;29.69;35.17
23619;BME280;18207;32.078;34.818;2023-03-03T07:57:12;101054.13;;;29.78;35.03
23619;BME280;18207;32.078;34.818;2023-03-03T07:59:47;101043.28;;;29.87;35.16
23619;BME280;18207;32.078;34.818;2023-03-03T08:02:45;101057.97;;;30.00;35.31
23619;BME280;18207;32.078;34.818;2023-03-03T08:05:33;101048.75;;;30.10;35.24
23619;BME280;18207;32.078;34.818;2023-03-03T08:08:28;101048.44;;;30.18;34.83
23619;BME280;18207;32.078;34.818;2023-03-03T08:11:01;101048.47;;;30.25;35.21
23619;BME280;18207;32.078;34.818;2023-03-03T08:13:39;101065.53;;;30.32;34.69
23619;BME280;18207;32.078;34.818;2023-03-03T08:16:36;101066.81;;;30.38;34.96
23619;BME280;18207;32.078;34.818;2023-03-03T08:19:14;101055.91;;;30.43;34.66
23619;BME280;18207;32.078;34.818;2023-03-03T08:21:46;101059.22;;;30.49;34.91
23619;BME280;18207;32.078;34.818;2023-03-03T08:24:16;101059.66;;;30.54;35.05
23619;BME280;18207;32.078;34.818;2023-03-03T08:26:47;101053.59;;;30.59;34.65
23619;BME280;18207;32.078;34.818;2023-03-03T08:29:18;101058.06;;;30.64;34.50
23619;BME280;18207;32.078;34.818;2023-03-03T08:31:49;101055.69;;;30.69;34.34
23619;BME280;18207;32.078;34.818;2023-03-03T08:34:21;101053.69;;;30.77;34.63
23619;BME280;18207;32.078;34.818;2023-03-03T08:36:51;101052.09;;;30.83;34.16
23619;BME280;18207;32.078;34.818;2023-03-03T08:39:24;101056.16;;;30.89;34.40
23619;BME280;18207;32.078;34.818;2023-03-03T08:41:54;101053.38;;;30.92;34.43
23619;BME280;18207;32.078;34.818;2023-03-03T08:44:24;101056.66;;;30.98;34.18
23619;BME280;18207;32.078;34.818;2023-03-03T08:46:55;101059.88;;;31.00;34.28
23619;BME280;18207;32.078;34.818;2023-03-03T08:49:27;101060.75;;;31.04;34.54
23619;BME280;18207;32.078;34.818;2023-03-03T08:51:58;101058.31;;;31.06;34.52
23619;BME280;18207;32.078;34.818;2023-03-03T08:54:31;101068.47;;;31.10;34.15
23619;BME280;18207;32.078;34.818;2023-03-03T08:57:04;101071.75;;;31.12;34.34
23619;BME280;18207;32.078;34.818;2023-03-03T08:59:33;101056.72;;;31.12;33.69
23619;BME280;18207;32.078;34.818;2023-03-03T09:02:06;101068.09;;;31.15;33.83
23619;BME280;18207;32.078;34.818;2023-03-03T09:04:39;101078.66;;;31.18;34.30
23619;BME280;18207;32.078;34.818;2023-03-03T09:07:09;101065.66;;;31.21;33.49
23619;BME280;18207;32.078;34.818;2023-03-03T09:09:40;101062.47;;;31.26;34.00
23619;BME280;18207;32.078;34.818;2023-03-03T09:12:17;101073.41;;;31.27;33.89
23619;BME280;18207;32.078;34.818;2023-03-03T09:14:50;101060.03;;;31.28;34.04
23619;BME280;18207;32.078;34.818;2023-03-03T09:17:29;101069.78;;;31.30;33.86
23619;BME280;18207;32.078;34.818;2023-03-03T09:20:27;101066.09;;;31.30;33.85
23619;BME280;18207;32.078;34.818;2023-03-03T09:23:24;101072.19;;;31.28;33.59
23619;BME280;18207;32.078;34.818;2023-03-03T09:25:58;101060.81;;;31.21;33.97
23619;BME280;18207;32.078;34.818;2023-03-03T09:28:41;101053.50;;;31.20;33.49
23619;BME280;18207;32.078;34.818;2023-03-03T09:31:24;101057.97;;;31.21;33.50
23619;BME280;18207;32.078;34.818;2023-03-03T09:33:55;101054.72;;;31.23;33.97
23619;BME280;18207;32.078;34.818;2023-03-03T09:36:35;101058.00;;;31.25;33.74
23619;BME280;18207;32.078;34.818;2023-03-03T09:39:16;101053.94;;;31.26;33.82
23619;BME280;18207;32.078;34.818;2023-03-03T09:45:44;101065.66;;;31.21;33.72
23619;BME280;18207;32.078;34.818;2023-03-03T09:48:53;101075.00;;;31.18;33.50
23619;BME280;18207;32.078;34.818;2023-03-03T09:52:08;101061.19;;;31.16;33.91
23619;BME280;18207;32.078;34.818;2023-03-03T09:54:56;101063.25;;;31.19;34.13
23619;BME280;18207;32.078;34.818;2023-03-03T09:57:42;101061.19;;;31.20;33.93
23619;BME280;18207;32.078;34.818;2023-03-03T10:00:50;101062.81;;;31.17;33.74
23619;BME280;18207;32.078;34.818;2023-03-03T10:03:53;101057.53;;;31.12;33.68
23619;BME280;18207;32.078;34.818;2023-03-03T10:06:32;101066.44;;;31.11;33.64
23619;BME280;18207;32.078;34.818;2023-03-03T10:09:47;101055.50;;;31.09;34.12
23619;BME280;18207;32.078;34.818;2023-03-03T10:12:29;101049.41;;;31.07;33.78
23619;BME280;18207;32.078;34.818;2023-03-03T10:15:32;101048.97;;;31.05;33.95
23619;BME280;18207;32.078;34.818;2023-03-03T10:18:20;101054.25;;;31.03;33.81
23619;BME280;18207;32.078;34.818;2023-03-03T10:21:09;101060.69;;;31.00;33.46
23619;BME280;18207;32.078;34.818;2023-03-03T10:23:54;101058.22;;;30.95;33.69
23619;BME280;18207;32.078;34.818;2023-03-03T10:27:18;101047.66;;;30.89;33.89
23619;BME280;18207;32.078;34.818;2023-03-03T10:30:07;101057.78;;;30.83;33.85
23619;BME280;18207;32.078;34.818;2023-03-03T10:32:54;101054.50;;;30.77;34.35
23619;BME280;18207;32.078;34.818;2023-03-03T10:35:46;101054.88;;;30.72;34.05
23619;BME280;18207;32.078;34.818;2023-03-03T10:38:53;101054.03;;;30.68;34.02
23619;BME280;18207;32.078;34.818;2023-03-03T10:41:47;101060.50;;;30.65;34.24
23619;BME280;18207;32.078;34.818;2023-03-03T10:45:04;101059.69;;;30.61;33.78
23619;BME280;18207;32.078;34.818;2023-03-03T10:47:59;101056.41;;;30.52;33.78
23619;BME280;18207;32.078;34.818;2023-03-03T10:50:49;101060.75;;;30.46;34.12
23619;BME280;18207;32.078;34.818;2023-03-03T10:53:33;101056.69;;;30.41;34.09
23619;BME280;18207;32.078;34.818;2023-03-03T10:56:29;101055.44;;;30.35;34.25
23619;BME280;18207;32.078;34.818;2023-03-03T10:59:48;101065.09;;;30.30;34.43
23619;BME280;18207;32.078;34.818;2023-03-03T11:02:34;101055.38;;;30.28;34.39
23619;BME280;18207;32.078;34.818;2023-03-03T11:05:28;101055.78;;;30.26;34.76
23619;BME280;18207;32.078;34.818;2023-03-03T11:08:07;101055.34;;;30.24;34.71
23619;BME280;18207;32.078;34.818;2023-03-03T11:10:53;101056.97;;;30.22;34.56
23619;BME280;18207;32.078;34.818;2023-03-03T11:13:39;101059.78;;;30.18;34.27
23619;BME280;18207;32.078;34.818;2023-03-03T11:16:33;101055.66;;;30.12;34.77
23619;BME280;18207;32.078;34.818;2023-03-03T11:19:39;101066.53;;;30.07;34.48
23619;BME280;18207;32.078;34.818;2023-03-03T11:22:33;101069.78;;;30.05;34.56
23619;BME280;18207;32.078;34.818;2023-03-03T11:25:25;101059.22;;;30.02;34.42
23619;BME280;18207;32.078;34.818;2023-03-03T11:28:36;101057.19;;;29.99;34.57
23619;BME280;18207;32.078;34.818;2023-03-03T11:31:21;101073.00;;;30.00;34.94
23619;BME280;18207;32.078;34.818;2023-03-03T11:34:06;101076.19;;;29.99;34.73
23619;BME280;18207;32.078;34.818;2023-03-03T11:36:49;101068.13;;;30.01;34.98
23619;BME280;18207;32.078;34.818;2023-03-03T11:39:25;101064.47;;;30.00;34.81
23619;BME280;18207;32.078;34.818;2023-03-03T11:42:10;101067.72;;;30.02;34.89
23619;BME280;18207;32.078;34.818;2023-03-03T11:44:51;101061.25;;;30.02;34.85
23619;BME280;18207;32.078;34.818;2023-03-03T11:47:28;101057.97;;;30.00;34.66
23619;BME280;18207;32.078;34.818;2023-03-03T11:50:04;101066.91;;;29.98;35.00
23619;BME280;18207;32.078;34.818;2023-03-03T11:52:46;101066.88;;;29.95;34.69
23619;BME280;18207;32.078;34.818;2023-03-03T11:55:26;101070.06;;;29.93;34.96
23619;BME280;18207;32.078;34.818;2023-03-03T11:58:12;101074.06;;;29.92;35.02
23619;BME280;18207;32.078;34.818;2023-03-03T12:00:51;101084.63;;;29.92;34.99
23619;BME280;18207;32.078;34.818;2023-03-03T12:03:31;101084.59;;;29.88;34.93
23619;BME280;18207;32.078;34.818;2023-03-03T12:06:22;101079.25;;;29.83;35.00
23619;BME280;18207;32.078;34.818;2023-03-03T12:09:33;101068.28;;;29.75;35.06
23619;BME280;18207;32.078;34.818;2023-03-03T12:12:15;101076.69;;;29.68;35.12
23619;BME280;18207;32.078;34.818;2023-03-03T12:15:09;101081.88;;;29.62;35.04
23619;BME280;18207;32.078;34.818;2023-03-03T12:18:11;101093.19;;;29.59;35.13
23619;BME280;18207;32.078;34.818;2023-03-03T12:20:58;101092.34;;;29.55;35.24
23619;BME280;18207;32.078;34.818;2023-03-03T12:23:53;101089.47;;;29.52;34.80
23619;BME280;18207;32.078;34.818;2023-03-03T12:26:46;101093.03;;;29.45;35.54
23619;BME280;18207;32.078;34.818;2023-03-03T12:29:40;101099.88;;;29.41;35.69
23619;BME280;18207;32.078;34.818;2023-03-03T12:32:31;101098.59;;;29.38;35.52
23619;BME280;18207;32.078;34.818;2023-03-03T12:35:31;101100.56;;;29.34;35.44
23619;BME280;18207;32.078;34.818;2023-03-03T12:38:17;101100.53;;;29.31;35.32
23619;BME280;18207;32.078;34.818;2023-03-03T12:41:03;101105.38;;;29.30;35.52
23619;BME280;18207;32.078;34.818;2023-03-03T12:43:54;101097.25;;;29.29;35.70
23619;BME280;18207;32.078;34.818;2023-03-03T12:46:43;101096.81;;;29.27;35.53
23619;BME280;18207;32.078;34.818;2023-03-03T12:49:15;101100.06;;;29.25;35.58
23619;BME280;18207;32.078;34.818;2023-03-03T12:52:04;101105.28;;;29.23;35.65
23619;BME280;18207;32.078;34.818;2023-03-03T12:54:57;101098.38;;;29.21;35.54
23619;BME280;18207;32.078;34.818;2023-03-03T12:57:40;101118.56;;;29.19;35.81
23619;BME280;18207;32.078;34.818;2023-03-03T13:00:42;101114.50;;;29.17;35.59
23619;BME280;18207;32.078;34.818;2023-03-03T13:03:31;101114.91;;;29.15;35.84
23619;BME280;18207;32.078;34.818;2023-03-03T13:06:28;101116.09;;;29.14;35.88
23619;BME280;18207;32.078;34.818;2023-03-03T13:09:21;101118.53;;;29.16;35.74
23619;BME280;18207;32.078;34.818;2023-03-03T13:12:33;101118.53;;;29.16;36.11
23619;BME280;18207;32.078;34.818;2023-03-03T13:15:15;101120.56;;;29.15;35.63
23619;BME280;18207;32.078;34.818;2023-03-03T13:18:18;101123.75;;;29.14;35.98
23619;BME280;18207;32.078;34.818;2023-03-03T13:21:05;101129.41;;;29.14;36.10
23619;BME280;18207;32.078;34.818;2023-03-03T13:23:49;101131.84;;;29.12;36.13
23619;BME280;18207;32.078;34.818;2023-03-03T13:26:34;101137.50;;;29.12;35.83
23619;BME280;18207;32.078;34.818;2023-03-03T13:29:18;101133.03;;;29.11;35.81
23619;BME280;18207;32.078;34.818;2023-03-03T13:35:13;101133.75;;;29.04;36.16
23619;BME280;18207;32.078;34.818;2023-03-03T13:37:51;101141.81;;;29.02;36.13
23619;BME280;18207;32.078;34.818;2023-03-03T13:40:26;101148.22;;;28.99;36.14
23619;BME280;18207;32.078;34.818;2023-03-03T13:43:03;101134.84;;;28.96;35.98
23619;BME280;18207;32.078;34.818;2023-03-03T13:45:45;101139.25;;;28.94;36.26
23619;BME280;18207;32.078;34.818;2023-03-03T13:48:40;101135.63;;;28.93;35.97